createdAt,value
2019-03-23T00:01:02.039Z,8.22
2019-03-23T00:02:06.359Z,8.22
2019-03-23T00:03:10.639Z,8.20
2019-03-23T00:04:14.861Z,8.20
2019-03-23T00:05:19.141Z,8.20
2019-03-23T00:06:30.806Z,8.20
2019-03-23T00:07:27.619Z,8.19
2019-03-23T00:08:31.909Z,8.20
2019-03-23T00:09:37.056Z,8.20
2019-03-23T00:10:40.955Z,8.19
2019-03-23T00:11:45.203Z,8.19
2019-03-23T00:12:49.511Z,8.19
2019-03-23T00:13:53.650Z,8.18
2019-03-23T00:14:57.853Z,8.17
2019-03-23T00:16:02.175Z,8.18
2019-03-23T00:17:06.450Z,8.18
2019-03-23T00:18:10.758Z,8.18
2019-03-23T00:19:18.041Z,8.19
2019-03-23T00:20:21.364Z,8.19
2019-03-23T00:21:25.625Z,8.20
2019-03-23T00:22:29.893Z,8.20
2019-03-23T00:23:34.071Z,8.21
2019-03-23T00:24:38.397Z,8.21
2019-03-23T00:25:42.662Z,8.21
2019-03-23T00:26:46.933Z,8.21
2019-03-23T00:27:51.187Z,8.21
2019-03-23T00:28:55.455Z,8.21
2019-03-23T00:29:59.699Z,8.22
2019-03-23T00:31:04.857Z,8.23
2019-03-23T00:32:08.817Z,8.22
2019-03-23T00:33:12.905Z,8.22
2019-03-23T00:34:17.255Z,8.22
2019-03-23T00:35:21.514Z,8.21
2019-03-23T00:36:25.779Z,8.21
2019-03-23T00:37:30.011Z,8.21
2019-03-23T00:38:34.296Z,8.21
2019-03-23T00:39:38.570Z,8.21
2019-03-23T00:40:42.942Z,8.21
2019-03-23T00:41:47.047Z,8.21
2019-03-23T00:42:51.407Z,8.21
2019-03-23T00:43:55.576Z,8.22
2019-03-23T00:44:59.907Z,8.23
2019-03-23T00:46:04.165Z,8.23
2019-03-23T00:47:08.450Z,8.24
2019-03-23T00:48:12.678Z,8.23
2019-03-23T00:49:16.861Z,8.23
2019-03-23T00:50:21.165Z,8.24
2019-03-23T00:51:25.465Z,8.24
2019-03-23T00:52:29.746Z,8.25
2019-03-23T00:53:34.012Z,8.25
2019-03-23T00:54:38.268Z,8.26
2019-03-23T00:55:43.458Z,8.25
2019-03-23T00:56:47.335Z,8.25
2019-03-23T00:57:51.607Z,8.25
2019-03-23T00:58:55.868Z,8.24
2019-03-23T01:00:00.175Z,8.23
2019-03-23T01:01:04.378Z,8.22
2019-03-23T01:02:08.635Z,8.21
2019-03-23T01:03:12.921Z,8.20
2019-03-23T01:04:17.128Z,8.19
2019-03-23T01:05:21.416Z,8.18
2019-03-23T01:06:25.673Z,8.17
2019-03-23T01:07:29.877Z,8.16
2019-03-23T01:08:34.193Z,8.15
2019-03-23T01:09:38.590Z,8.15
2019-03-23T01:10:42.790Z,8.14
2019-03-23T01:11:47.072Z,8.14
2019-03-23T01:12:51.536Z,8.14
2019-03-23T01:13:55.652Z,8.13
2019-03-23T01:14:59.980Z,8.13
2019-03-23T01:16:04.236Z,8.11
2019-03-23T01:17:08.431Z,8.10
2019-03-23T01:18:12.741Z,8.08
2019-03-23T01:19:16.992Z,8.07
2019-03-23T01:20:21.323Z,8.05
2019-03-23T01:21:25.601Z,8.04
2019-03-23T01:22:29.883Z,8.02
2019-03-23T01:23:34.137Z,8.02
2019-03-23T01:24:38.313Z,8.00
2019-03-23T01:25:42.621Z,7.98
2019-03-23T01:26:46.786Z,7.96
2019-03-23T01:27:51.106Z,7.95
2019-03-23T01:28:55.267Z,7.94
2019-03-23T01:29:59.631Z,7.93
2019-03-23T01:31:03.853Z,7.93
2019-03-23T01:32:08.128Z,7.92
2019-03-23T01:33:12.320Z,7.92
2019-03-23T01:34:16.632Z,7.91
2019-03-23T01:35:20.878Z,7.90
2019-03-23T01:36:25.045Z,7.89
2019-03-23T01:37:29.360Z,7.88
2019-03-23T01:38:33.617Z,7.87
2019-03-23T01:39:37.799Z,7.87
2019-03-23T01:40:42.035Z,7.87
2019-03-23T01:41:46.351Z,7.87
2019-03-23T01:42:50.584Z,7.87
2019-03-23T01:43:54.824Z,7.86
2019-03-23T01:44:59.152Z,7.86
2019-03-23T01:46:03.391Z,7.87
2019-03-23T01:47:07.658Z,7.87
2019-03-23T01:48:11.926Z,7.87
2019-03-23T01:49:16.182Z,7.86
2019-03-23T01:50:20.471Z,7.85
2019-03-23T01:51:25.598Z,7.85
2019-03-23T01:52:29.514Z,7.85
2019-03-23T01:53:33.813Z,7.84
2019-03-23T01:54:38.055Z,7.83
2019-03-23T01:55:42.305Z,7.83
2019-03-23T01:56:46.546Z,7.83
2019-03-23T01:57:50.787Z,7.82
2019-03-23T01:58:54.974Z,7.81
2019-03-23T01:59:59.156Z,7.81
2019-03-23T02:01:03.358Z,7.80
2019-03-23T02:02:07.652Z,7.79
2019-03-23T02:03:11.905Z,7.78
2019-03-23T02:04:16.089Z,7.77
2019-03-23T02:05:20.502Z,7.76
2019-03-23T02:06:24.731Z,7.76
2019-03-23T02:07:28.993Z,7.76
2019-03-23T02:08:33.183Z,7.75
2019-03-23T02:09:37.425Z,7.76
2019-03-23T02:10:42.000Z,7.76
2019-03-23T02:11:45.784Z,7.76
2019-03-23T02:12:50.006Z,7.77
2019-03-23T02:14:00.311Z,7.79
2019-03-23T02:15:03.207Z,7.78
2019-03-23T02:16:07.415Z,7.74
2019-03-23T02:17:11.631Z,7.67
2019-03-23T02:18:15.869Z,7.61
2019-03-23T02:19:20.070Z,7.54
2019-03-23T02:20:24.213Z,7.47
2019-03-23T02:21:28.530Z,7.43
2019-03-23T02:22:32.759Z,7.39
2019-03-23T02:23:36.901Z,7.38
2019-03-23T02:24:41.175Z,7.35
2019-03-23T02:25:45.440Z,7.33
2019-03-23T02:26:49.684Z,7.33
2019-03-23T02:27:53.834Z,7.33
2019-03-23T02:28:58.116Z,7.35
2019-03-23T02:30:02.385Z,7.36
2019-03-23T02:31:07.369Z,7.37
2019-03-23T02:32:10.841Z,7.38
2019-03-23T02:33:15.089Z,7.41
2019-03-23T02:34:19.334Z,7.45
2019-03-23T02:35:23.513Z,7.49
2019-03-23T02:36:27.614Z,7.53
2019-03-23T02:37:31.954Z,7.56
2019-03-23T02:38:36.204Z,7.57
2019-03-23T02:39:40.427Z,7.56
2019-03-23T02:40:44.600Z,7.52
2019-03-23T02:41:48.944Z,7.44
2019-03-23T02:42:53.046Z,7.32
2019-03-23T02:43:57.321Z,7.20
2019-03-23T02:45:01.569Z,7.07
2019-03-23T02:46:05.738Z,6.95
2019-03-23T02:47:10.012Z,6.84
2019-03-23T02:48:14.142Z,6.75
2019-03-23T02:49:18.306Z,6.68
2019-03-23T02:50:22.643Z,6.61
2019-03-23T02:51:26.793Z,6.56
2019-03-23T02:52:30.941Z,6.52
2019-03-23T02:53:35.131Z,6.48
2019-03-23T02:54:39.337Z,6.45
2019-03-23T02:55:43.673Z,6.42
2019-03-23T02:56:47.905Z,6.41
2019-03-23T02:57:52.123Z,6.41
2019-03-23T02:58:56.143Z,6.43
2019-03-23T03:00:00.443Z,6.46
2019-03-23T03:01:04.633Z,6.48
2019-03-23T03:02:08.857Z,6.50
2019-03-23T03:03:13.078Z,6.52
2019-03-23T03:04:17.322Z,6.53
2019-03-23T03:05:21.521Z,6.54
2019-03-23T03:06:25.797Z,6.55
2019-03-23T03:07:41.188Z,6.57
2019-03-23T03:08:34.343Z,6.58
2019-03-23T03:09:38.514Z,6.59
2019-03-23T03:10:42.756Z,6.60
2019-03-23T03:11:47.017Z,6.60
2019-03-23T03:12:51.249Z,6.61
2019-03-23T03:13:55.494Z,6.60
2019-03-23T03:14:59.662Z,6.61
2019-03-23T03:16:03.967Z,6.61
2019-03-23T03:17:08.246Z,6.61
2019-03-23T03:18:12.462Z,6.61
2019-03-23T03:19:16.692Z,6.60
2019-03-23T03:20:20.888Z,6.59
2019-03-23T03:21:25.197Z,6.59
2019-03-23T03:22:29.420Z,6.58
2019-03-23T03:23:33.661Z,6.58
2019-03-23T03:24:37.903Z,6.57
2019-03-23T03:25:42.110Z,6.57
2019-03-23T03:26:46.368Z,6.56
2019-03-23T03:27:50.560Z,6.56
2019-03-23T03:28:54.780Z,6.56
2019-03-23T03:29:59.064Z,6.56
2019-03-23T03:31:03.173Z,6.57
2019-03-23T03:32:07.434Z,6.57
2019-03-23T03:33:11.783Z,6.59
2019-03-23T03:34:15.862Z,6.59
2019-03-23T03:35:20.007Z,6.59
2019-03-23T03:36:29.965Z,6.60
2019-03-23T03:37:30.579Z,6.61
2019-03-23T03:38:34.797Z,6.60
2019-03-23T03:39:39.170Z,6.59
2019-03-23T03:40:43.340Z,6.59
2019-03-23T03:41:47.396Z,6.58
2019-03-23T03:42:51.750Z,6.58
2019-03-23T03:43:55.975Z,6.55
2019-03-23T03:45:00.464Z,6.52
2019-03-23T03:46:04.349Z,6.51
2019-03-23T03:47:08.657Z,6.44
2019-03-23T03:48:12.874Z,6.36
2019-03-23T03:49:17.092Z,6.29
2019-03-23T03:50:21.345Z,6.22
2019-03-23T03:51:25.582Z,6.15
2019-03-23T03:52:29.938Z,6.10
2019-03-23T03:53:34.066Z,6.05
2019-03-23T03:54:38.308Z,6.04
2019-03-23T03:55:42.514Z,6.05
2019-03-23T03:56:46.702Z,6.07
2019-03-23T03:57:50.922Z,6.11
2019-03-23T03:58:55.193Z,6.16
2019-03-23T03:59:59.394Z,6.21
2019-03-23T04:01:03.587Z,6.26
2019-03-23T04:02:07.821Z,6.31
2019-03-23T04:03:12.087Z,6.36
2019-03-23T04:04:16.300Z,6.40
2019-03-23T04:05:20.377Z,6.43
2019-03-23T04:06:24.701Z,6.47
2019-03-23T04:07:28.957Z,6.51
2019-03-23T04:08:33.164Z,6.54
2019-03-23T04:09:40.310Z,6.57
2019-03-23T04:10:41.441Z,6.58
2019-03-23T04:11:45.709Z,6.59
2019-03-23T04:12:49.987Z,6.60
2019-03-23T04:13:54.119Z,6.58
2019-03-23T04:14:58.288Z,6.54
2019-03-23T04:16:02.656Z,6.52
2019-03-23T04:17:06.833Z,6.48
2019-03-23T04:18:11.108Z,6.45
2019-03-23T04:19:15.279Z,6.42
2019-03-23T04:20:19.462Z,6.39
2019-03-23T04:21:23.547Z,6.39
2019-03-23T04:22:27.876Z,6.38
2019-03-23T04:23:32.185Z,6.36
2019-03-23T04:24:36.394Z,6.33
2019-03-23T04:25:40.598Z,6.29
2019-03-23T04:26:44.874Z,6.23
2019-03-23T04:27:49.264Z,6.19
2019-03-23T04:28:53.346Z,6.16
2019-03-23T04:29:57.600Z,6.14
2019-03-23T04:31:01.796Z,6.13
2019-03-23T04:32:06.156Z,6.11
2019-03-23T04:33:10.327Z,6.09
2019-03-23T04:34:14.447Z,6.08
2019-03-23T04:35:18.695Z,6.08
2019-03-23T04:36:22.886Z,6.09
2019-03-23T04:37:27.111Z,6.11
2019-03-23T04:38:31.502Z,6.13
2019-03-23T04:39:35.598Z,6.14
2019-03-23T04:40:39.878Z,6.16
2019-03-23T04:41:44.132Z,6.17
2019-03-23T04:42:48.389Z,6.19
2019-03-23T04:43:52.612Z,6.21
2019-03-23T04:44:56.859Z,6.24
2019-03-23T04:46:01.038Z,6.29
2019-03-23T04:47:05.213Z,6.31
2019-03-23T04:48:09.489Z,6.34
2019-03-23T04:49:13.656Z,6.37
2019-03-23T04:50:17.939Z,6.40
2019-03-23T04:51:22.094Z,6.44
2019-03-23T04:52:26.215Z,6.49
2019-03-23T04:53:30.460Z,6.54
2019-03-23T04:54:34.696Z,6.58
2019-03-23T04:55:38.897Z,6.63
2019-03-23T04:56:43.021Z,6.67
2019-03-23T04:57:47.359Z,6.71
2019-03-23T04:58:51.488Z,6.75
2019-03-23T04:59:55.650Z,6.79
2019-03-23T05:00:59.919Z,6.83
2019-03-23T05:02:04.166Z,6.87
2019-03-23T05:03:08.433Z,6.88
2019-03-23T05:04:12.582Z,6.86
2019-03-23T05:05:16.780Z,6.81
2019-03-23T05:06:20.977Z,6.73
2019-03-23T05:07:25.314Z,6.67
2019-03-23T05:08:33.550Z,6.64
2019-03-23T05:09:33.685Z,6.63
2019-03-23T05:10:37.965Z,6.63
2019-03-23T05:11:42.183Z,6.63
2019-03-23T05:12:46.342Z,6.62
2019-03-23T05:13:50.459Z,6.62
2019-03-23T05:14:54.693Z,6.62
2019-03-23T05:15:58.964Z,6.61
2019-03-23T05:17:03.184Z,6.62
2019-03-23T05:18:07.347Z,6.64
2019-03-23T05:19:11.530Z,6.67
2019-03-23T05:20:15.855Z,6.69
2019-03-23T05:21:20.003Z,6.68
2019-03-23T05:22:24.159Z,6.68
2019-03-23T05:23:28.332Z,6.67
2019-03-23T05:24:32.559Z,6.67
2019-03-23T05:25:36.759Z,6.67
2019-03-23T05:26:40.930Z,6.67
2019-03-23T05:27:45.075Z,6.66
2019-03-23T05:28:49.461Z,6.64
2019-03-23T05:29:53.664Z,6.62
2019-03-23T05:30:57.946Z,6.61
2019-03-23T05:32:02.083Z,6.62
2019-03-23T05:33:06.238Z,6.65
2019-03-23T05:34:10.522Z,6.68
2019-03-23T05:35:14.667Z,6.70
2019-03-23T05:36:18.961Z,6.73
2019-03-23T05:37:23.199Z,6.76
2019-03-23T05:38:27.419Z,6.80
2019-03-23T05:39:31.643Z,6.84
2019-03-23T05:40:35.784Z,6.88
2019-03-23T05:41:40.090Z,6.92
2019-03-23T05:42:44.248Z,6.96
2019-03-23T05:43:48.462Z,7.00
2019-03-23T05:44:52.751Z,7.03
2019-03-23T05:45:56.891Z,7.07
2019-03-23T05:47:01.149Z,7.09
2019-03-23T05:48:05.337Z,7.09
2019-03-23T05:49:09.548Z,7.10
2019-03-23T05:50:13.839Z,7.12
2019-03-23T05:51:17.995Z,7.14
2019-03-23T05:52:22.285Z,7.16
2019-03-23T05:53:26.441Z,7.18
2019-03-23T05:54:30.722Z,7.21
2019-03-23T05:55:34.979Z,7.24
2019-03-23T05:56:39.203Z,7.27
2019-03-23T05:57:43.466Z,7.29
2019-03-23T05:58:47.691Z,7.31
2019-03-23T05:59:51.859Z,7.32
2019-03-23T06:00:56.172Z,7.31
2019-03-23T06:02:00.428Z,7.30
2019-03-23T06:03:04.637Z,7.29
2019-03-23T06:04:08.845Z,7.28
2019-03-23T06:05:13.110Z,7.28
2019-03-23T06:06:17.340Z,7.27
2019-03-23T06:07:21.562Z,7.26
2019-03-23T06:08:25.786Z,7.25
2019-03-23T06:09:29.953Z,7.25
2019-03-23T06:10:34.229Z,7.25
2019-03-23T06:11:38.433Z,7.26
2019-03-23T06:12:42.659Z,7.27
2019-03-23T06:13:46.803Z,7.29
2019-03-23T06:14:51.086Z,7.32
2019-03-23T06:15:55.350Z,7.35
2019-03-23T06:16:59.571Z,7.36
2019-03-23T06:18:03.806Z,7.38
2019-03-23T06:19:08.062Z,7.39
2019-03-23T06:20:12.326Z,7.41
2019-03-23T06:21:16.555Z,7.45
2019-03-23T06:22:20.699Z,7.50
2019-03-23T06:23:24.975Z,7.56
2019-03-23T06:24:29.243Z,7.62
2019-03-23T06:25:33.506Z,7.68
2019-03-23T06:26:37.649Z,7.73
2019-03-23T06:27:41.941Z,7.77
2019-03-23T06:28:46.206Z,7.81
2019-03-23T06:29:50.463Z,7.86
2019-03-23T06:30:54.743Z,7.91
2019-03-23T06:31:59.103Z,7.95
2019-03-23T06:33:03.416Z,7.97
2019-03-23T06:34:07.618Z,7.99
2019-03-23T06:35:11.903Z,8.00
2019-03-23T06:36:16.143Z,8.01
2019-03-23T06:37:20.402Z,8.02
2019-03-23T06:38:24.559Z,8.04
2019-03-23T06:39:28.786Z,8.07
2019-03-23T06:40:33.095Z,8.10
2019-03-23T06:41:37.257Z,8.13
2019-03-23T06:42:41.588Z,8.15
2019-03-23T06:43:45.886Z,8.18
2019-03-23T06:44:50.052Z,8.22
2019-03-23T06:45:54.207Z,8.25
2019-03-23T06:47:01.461Z,8.28
2019-03-23T06:48:04.808Z,8.30
2019-03-23T06:49:09.072Z,8.33
2019-03-23T06:50:13.219Z,8.35
2019-03-23T06:51:17.465Z,8.38
2019-03-23T06:52:21.718Z,8.40
2019-03-23T06:53:26.022Z,8.41
2019-03-23T06:54:30.200Z,8.41
2019-03-23T06:55:34.422Z,8.42
2019-03-23T06:56:38.703Z,8.43
2019-03-23T06:57:42.952Z,8.44
2019-03-23T06:58:47.121Z,8.45
2019-03-23T06:59:51.428Z,8.47
2019-03-23T07:00:55.695Z,8.48
2019-03-23T07:01:59.948Z,8.51
2019-03-23T07:03:04.201Z,8.52
2019-03-23T07:04:08.470Z,8.53
2019-03-23T07:05:12.620Z,8.54
2019-03-23T07:06:16.949Z,8.56
2019-03-23T07:07:21.081Z,8.57
2019-03-23T07:08:31.805Z,8.58
2019-03-23T07:09:29.627Z,8.59
2019-03-23T07:10:33.885Z,8.60
2019-03-23T07:11:38.062Z,8.60
2019-03-23T07:12:42.349Z,8.59
2019-03-23T07:13:46.603Z,8.60
2019-03-23T07:14:50.879Z,8.61
2019-03-23T07:15:55.199Z,8.62
2019-03-23T07:16:59.418Z,8.63
2019-03-23T07:18:03.590Z,8.64
2019-03-23T07:19:07.846Z,8.66
2019-03-23T07:20:12.086Z,8.67
2019-03-23T07:21:16.431Z,8.68
2019-03-23T07:22:20.745Z,8.69
2019-03-23T07:23:25.022Z,8.72
2019-03-23T07:24:29.300Z,8.75
2019-03-23T07:25:33.514Z,8.76
2019-03-23T07:26:37.771Z,8.78
2019-03-23T07:27:42.022Z,8.79
2019-03-23T07:28:46.263Z,8.80
2019-03-23T07:29:50.509Z,8.80
2019-03-23T07:30:54.680Z,8.81
2019-03-23T07:32:05.667Z,8.81
2019-03-23T07:33:03.318Z,8.81
2019-03-23T07:34:07.513Z,8.81
2019-03-23T07:35:11.810Z,8.81
2019-03-23T07:36:16.005Z,8.81
2019-03-23T07:37:20.283Z,8.82
2019-03-23T07:38:24.582Z,8.83
2019-03-23T07:39:30.447Z,8.85
2019-03-23T07:40:32.915Z,8.85
2019-03-23T07:41:37.245Z,8.85
2019-03-23T07:42:41.550Z,8.84
2019-03-23T07:43:45.824Z,8.84
2019-03-23T07:44:50.089Z,8.83
2019-03-23T07:45:54.474Z,8.81
2019-03-23T07:46:58.707Z,8.79
2019-03-23T07:48:02.957Z,8.78
2019-03-23T07:49:07.229Z,8.78
2019-03-23T07:50:11.498Z,8.76
2019-03-23T07:51:15.801Z,8.74
2019-03-23T07:52:20.065Z,8.74
2019-03-23T07:53:24.343Z,8.74
2019-03-23T07:54:28.532Z,8.75
2019-03-23T07:55:32.795Z,8.75
2019-03-23T07:56:37.045Z,8.75
2019-03-23T07:57:41.302Z,8.74
2019-03-23T07:58:45.552Z,8.71
2019-03-23T07:59:49.843Z,8.67
2019-03-23T08:00:54.105Z,8.65
2019-03-23T08:01:58.346Z,8.64
2019-03-23T08:03:02.549Z,8.65
2019-03-23T08:04:06.757Z,8.64
2019-03-23T08:05:11.001Z,8.62
2019-03-23T08:06:15.256Z,8.61
2019-03-23T08:07:19.527Z,8.60
2019-03-23T08:08:23.821Z,8.60
2019-03-23T08:09:37.335Z,8.59
2019-03-23T08:10:32.200Z,8.58
2019-03-23T08:11:36.400Z,8.58
2019-03-23T08:12:40.776Z,8.59
2019-03-23T08:13:45.019Z,8.58
2019-03-23T08:14:52.185Z,8.57
2019-03-23T08:15:55.441Z,8.57
2019-03-23T08:16:59.684Z,8.58
2019-03-23T08:18:03.901Z,8.57
2019-03-23T08:19:08.223Z,8.56
2019-03-23T08:20:12.313Z,8.57
2019-03-23T08:21:16.627Z,8.58
2019-03-23T08:22:20.864Z,8.60
2019-03-23T08:23:25.186Z,8.63
2019-03-23T08:24:29.346Z,8.65
2019-03-23T08:25:33.642Z,8.68
2019-03-23T08:26:37.803Z,8.73
2019-03-23T08:27:42.123Z,8.78
2019-03-23T08:28:46.416Z,8.82
2019-03-23T08:29:50.667Z,8.85
2019-03-23T08:30:54.937Z,8.87
2019-03-23T08:31:59.255Z,8.87
2019-03-23T08:33:03.519Z,8.89
2019-03-23T08:34:07.778Z,8.89
2019-03-23T08:35:12.075Z,8.91
2019-03-23T08:36:16.280Z,8.95
2019-03-23T08:37:20.559Z,8.98
2019-03-23T08:38:24.834Z,8.98
2019-03-23T08:39:29.085Z,8.99
2019-03-23T08:40:35.604Z,8.99
2019-03-23T08:41:37.572Z,8.99
2019-03-23T08:42:41.826Z,9.00
2019-03-23T08:43:46.081Z,9.01
2019-03-23T08:44:50.364Z,8.99
2019-03-23T08:45:54.636Z,8.97
2019-03-23T08:46:58.824Z,8.94
2019-03-23T08:48:03.138Z,8.93
2019-03-23T08:49:07.420Z,8.91
2019-03-23T08:50:11.687Z,8.89
2019-03-23T08:51:15.986Z,8.90
2019-03-23T08:52:20.240Z,8.92
2019-03-23T08:53:24.429Z,8.94
2019-03-23T08:54:28.712Z,8.95
2019-03-23T08:55:32.981Z,8.99
2019-03-23T08:56:37.492Z,9.02
2019-03-23T08:57:41.624Z,9.05
2019-03-23T08:58:45.885Z,9.09
2019-03-23T08:59:50.112Z,9.11
2019-03-23T09:00:54.391Z,9.14
2019-03-23T09:01:58.655Z,9.16
2019-03-23T09:03:03.835Z,9.17
2019-03-23T09:04:07.230Z,9.19
2019-03-23T09:05:11.473Z,9.21
2019-03-23T09:06:15.727Z,9.24
2019-03-23T09:07:19.865Z,9.27
2019-03-23T09:08:24.192Z,9.30
2019-03-23T09:09:28.451Z,9.34
2019-03-23T09:10:32.625Z,9.39
2019-03-23T09:11:36.939Z,9.41
2019-03-23T09:12:41.222Z,9.44
2019-03-23T09:13:45.496Z,9.45
2019-03-23T09:14:49.758Z,9.49
2019-03-23T09:15:54.035Z,9.53
2019-03-23T09:16:58.249Z,9.56
2019-03-23T09:18:02.526Z,9.57
2019-03-23T09:19:06.782Z,9.57
2019-03-23T09:20:11.079Z,9.59
2019-03-23T09:21:15.242Z,9.61
2019-03-23T09:22:19.561Z,9.62
2019-03-23T09:23:23.806Z,9.65
2019-03-23T09:24:28.087Z,9.66
2019-03-23T09:25:32.337Z,9.69
2019-03-23T09:26:36.592Z,9.74
2019-03-23T09:27:40.832Z,9.77
2019-03-23T09:28:45.138Z,9.77
2019-03-23T09:29:49.390Z,9.80
2019-03-23T09:30:53.662Z,9.83
2019-03-23T09:31:58.028Z,9.87
2019-03-23T09:33:02.258Z,9.92
2019-03-23T09:34:06.535Z,9.97
2019-03-23T09:35:10.824Z,10.02
2019-03-23T09:36:15.111Z,10.05
2019-03-23T09:37:19.367Z,10.06
2019-03-23T09:38:23.676Z,10.06
2019-03-23T09:39:27.940Z,10.10
2019-03-23T09:40:32.300Z,10.15
2019-03-23T09:41:36.413Z,10.22
2019-03-23T09:42:40.787Z,10.28
2019-03-23T09:43:45.013Z,10.34
2019-03-23T09:44:49.311Z,10.39
2019-03-23T09:45:53.598Z,10.45
2019-03-23T09:46:57.862Z,10.53
2019-03-23T09:48:02.160Z,10.59
2019-03-23T09:49:06.446Z,10.64
2019-03-23T09:50:10.768Z,10.67
2019-03-23T09:51:15.044Z,10.68
2019-03-23T09:52:19.340Z,10.67
2019-03-23T09:53:23.618Z,10.67
2019-03-23T09:54:27.905Z,10.68
2019-03-23T09:55:32.275Z,10.70
2019-03-23T09:56:36.542Z,10.70
2019-03-23T09:57:40.814Z,10.70
2019-03-23T09:58:45.005Z,10.67
2019-03-23T09:59:49.300Z,10.66
2019-03-23T10:00:53.453Z,10.64
2019-03-23T10:01:57.724Z,10.62
2019-03-23T10:03:02.020Z,10.59
2019-03-23T10:04:06.226Z,10.57
2019-03-23T10:05:10.553Z,10.58
2019-03-23T10:06:14.849Z,10.59
2019-03-23T10:07:19.122Z,10.57
2019-03-23T10:08:26.393Z,10.59
2019-03-23T10:09:29.782Z,10.62
2019-03-23T10:10:34.051Z,10.64
2019-03-23T10:11:38.327Z,10.66
2019-03-23T10:12:42.598Z,10.68
2019-03-23T10:13:46.892Z,10.70
2019-03-23T10:14:51.161Z,10.70
2019-03-23T10:15:55.460Z,10.69
2019-03-23T10:16:59.707Z,10.68
2019-03-23T10:18:03.987Z,10.68
2019-03-23T10:19:08.654Z,10.69
2019-03-23T10:20:12.757Z,10.72
2019-03-23T10:21:17.054Z,10.73
2019-03-23T10:22:21.308Z,10.73
2019-03-23T10:23:25.459Z,10.74
2019-03-23T10:24:29.691Z,10.75
2019-03-23T10:25:34.029Z,10.75
2019-03-23T10:26:38.350Z,10.74
2019-03-23T10:27:42.689Z,10.75
2019-03-23T10:28:46.963Z,10.75
2019-03-23T10:29:51.205Z,10.80
2019-03-23T10:30:55.495Z,10.85
2019-03-23T10:31:59.780Z,10.89
2019-03-23T10:33:04.089Z,10.98
2019-03-23T10:34:08.371Z,11.07
2019-03-23T10:35:12.643Z,11.14
2019-03-23T10:36:16.940Z,11.16
2019-03-23T10:37:21.179Z,11.16
2019-03-23T10:38:25.489Z,11.18
2019-03-23T10:39:29.787Z,11.18
2019-03-23T10:40:34.095Z,11.17
2019-03-23T10:41:38.379Z,11.15
2019-03-23T10:42:43.499Z,11.15
2019-03-23T10:43:46.922Z,11.14
2019-03-23T10:44:51.183Z,11.13
2019-03-23T10:45:55.511Z,11.14
2019-03-23T10:46:59.817Z,11.09
2019-03-23T10:48:04.086Z,11.06
2019-03-23T10:49:08.341Z,11.05
2019-03-23T10:50:12.635Z,11.04
2019-03-23T10:51:16.979Z,11.03
2019-03-23T10:52:21.259Z,11.03
2019-03-23T10:53:25.554Z,11.02
2019-03-23T10:54:29.774Z,11.01
2019-03-23T10:55:34.061Z,10.98
2019-03-23T10:56:38.281Z,10.95
2019-03-23T10:57:42.584Z,10.94
2019-03-23T10:58:46.874Z,10.91
2019-03-23T10:59:51.153Z,10.90
2019-03-23T11:00:55.418Z,10.89
2019-03-23T11:01:59.786Z,10.91
2019-03-23T11:03:04.052Z,10.93
2019-03-23T11:04:08.363Z,10.94
2019-03-23T11:05:12.641Z,10.96
2019-03-23T11:06:16.910Z,10.98
2019-03-23T11:07:21.227Z,11.00
2019-03-23T11:08:25.506Z,11.01
2019-03-23T11:09:29.799Z,11.00
2019-03-23T11:10:41.522Z,10.99
2019-03-23T11:11:38.317Z,10.98
2019-03-23T11:12:42.652Z,10.94
2019-03-23T11:13:46.969Z,10.91
2019-03-23T11:14:51.263Z,10.90
2019-03-23T11:15:55.524Z,10.89
2019-03-23T11:16:59.854Z,10.90
2019-03-23T11:18:04.151Z,10.92
2019-03-23T11:19:13.332Z,10.94
2019-03-23T11:20:12.696Z,10.97
2019-03-23T11:21:16.983Z,10.97
2019-03-23T11:22:21.285Z,10.96
2019-03-23T11:23:25.578Z,10.98
2019-03-23T11:24:29.745Z,11.01
2019-03-23T11:25:33.976Z,11.05
2019-03-23T11:26:38.232Z,11.09
2019-03-23T11:27:42.598Z,11.11
2019-03-23T11:28:46.787Z,11.13
2019-03-23T11:29:51.122Z,11.16
2019-03-23T11:30:55.483Z,11.20
2019-03-23T11:31:59.756Z,11.24
2019-03-23T11:33:04.079Z,11.27
2019-03-23T11:34:17.512Z,11.30
2019-03-23T11:35:12.651Z,11.32
2019-03-23T11:36:16.836Z,11.33
2019-03-23T11:37:21.325Z,11.33
2019-03-23T11:38:25.503Z,11.33
2019-03-23T11:39:29.774Z,11.34
2019-03-23T11:40:34.051Z,11.36
2019-03-23T11:41:38.328Z,11.37
2019-03-23T11:42:50.000Z,11.38
2019-03-23T11:43:46.964Z,11.38
2019-03-23T11:44:51.228Z,11.38
2019-03-23T11:45:55.497Z,11.38
2019-03-23T11:46:59.785Z,11.37
2019-03-23T11:48:04.054Z,11.36
2019-03-23T11:49:08.371Z,11.34
2019-03-23T11:50:12.669Z,11.31
2019-03-23T11:51:16.944Z,11.29
2019-03-23T11:52:21.231Z,11.29
2019-03-23T11:53:25.568Z,11.28
2019-03-23T11:54:29.843Z,11.27
2019-03-23T11:55:34.141Z,11.27
2019-03-23T11:56:38.461Z,11.27
2019-03-23T11:57:42.730Z,11.26
2019-03-23T11:58:47.057Z,11.24
2019-03-23T11:59:51.358Z,11.22
2019-03-23T12:00:55.624Z,11.18
2019-03-23T12:01:59.891Z,11.14
2019-03-23T12:03:04.174Z,11.13
2019-03-23T12:04:08.497Z,11.11
2019-03-23T12:05:12.721Z,11.11
2019-03-23T12:06:16.967Z,11.11
2019-03-23T12:07:21.256Z,11.11
2019-03-23T12:08:25.580Z,11.10
2019-03-23T12:09:29.819Z,11.08
2019-03-23T12:10:34.252Z,11.07
2019-03-23T12:11:38.577Z,11.05
2019-03-23T12:12:42.801Z,11.04
2019-03-23T12:13:47.085Z,11.04
2019-03-23T12:14:51.382Z,11.06
2019-03-23T12:15:55.547Z,11.07
2019-03-23T12:16:59.886Z,11.08
2019-03-23T12:18:04.208Z,11.08
2019-03-23T12:19:08.493Z,11.08
2019-03-23T12:20:12.730Z,11.07
2019-03-23T12:21:16.947Z,11.07
2019-03-23T12:22:21.276Z,11.08
2019-03-23T12:23:25.641Z,11.09
2019-03-23T12:24:29.912Z,11.09
2019-03-23T12:25:34.116Z,11.10
2019-03-23T12:26:38.419Z,11.12
2019-03-23T12:27:42.703Z,11.15
2019-03-23T12:28:47.099Z,11.19
2019-03-23T12:29:51.374Z,11.22
2019-03-23T12:30:55.625Z,11.26
2019-03-23T12:31:59.912Z,11.30
2019-03-23T12:33:04.181Z,11.34
2019-03-23T12:34:08.333Z,11.37
2019-03-23T12:35:12.704Z,11.40
2019-03-23T12:36:17.004Z,11.43
2019-03-23T12:37:21.304Z,11.46
2019-03-23T12:38:25.560Z,11.50
2019-03-23T12:39:29.886Z,11.55
2019-03-23T12:40:36.388Z,11.61
2019-03-23T12:41:38.436Z,11.66
2019-03-23T12:42:42.591Z,11.71
2019-03-23T12:43:46.940Z,11.76
2019-03-23T12:44:51.284Z,11.80
2019-03-23T12:45:55.554Z,11.83
2019-03-23T12:46:59.732Z,11.84
2019-03-23T12:48:03.998Z,11.85
2019-03-23T12:49:08.381Z,11.88
2019-03-23T12:50:12.663Z,11.89
2019-03-23T12:51:16.936Z,11.89
2019-03-23T12:52:21.164Z,11.87
2019-03-23T12:53:25.491Z,11.88
2019-03-23T12:54:29.692Z,11.87
2019-03-23T12:55:33.848Z,11.86
2019-03-23T12:56:38.261Z,11.84
2019-03-23T12:57:42.553Z,11.82
2019-03-23T12:58:46.724Z,11.81
2019-03-23T12:59:51.099Z,11.80
2019-03-23T13:00:55.403Z,11.78
2019-03-23T13:01:59.706Z,11.77
2019-03-23T13:03:04.037Z,11.77
2019-03-23T13:04:08.344Z,11.76
2019-03-23T13:05:12.639Z,11.76
2019-03-23T13:06:16.911Z,11.77
2019-03-23T13:07:21.242Z,11.76
2019-03-23T13:08:25.537Z,11.76
2019-03-23T13:09:30.034Z,11.76
2019-03-23T13:10:34.216Z,11.77
2019-03-23T13:11:38.528Z,11.78
2019-03-23T13:12:42.863Z,11.80
2019-03-23T13:13:47.146Z,11.81
2019-03-23T13:14:51.431Z,11.81
2019-03-23T13:15:55.653Z,11.82
2019-03-23T13:16:59.857Z,11.82
2019-03-23T13:18:04.195Z,11.81
2019-03-23T13:19:08.504Z,11.77
2019-03-23T13:20:12.822Z,11.76
2019-03-23T13:21:16.949Z,11.76
2019-03-23T13:22:21.197Z,11.76
2019-03-23T13:23:25.533Z,11.78
2019-03-23T13:24:29.674Z,11.80
2019-03-23T13:25:34.155Z,11.82
2019-03-23T13:26:38.405Z,11.84
2019-03-23T13:27:42.709Z,11.86
2019-03-23T13:28:46.946Z,11.87
2019-03-23T13:29:51.264Z,11.89
2019-03-23T13:30:55.586Z,11.92
2019-03-23T13:31:59.885Z,11.95
2019-03-23T13:33:04.055Z,11.98
2019-03-23T13:34:08.342Z,12.02
2019-03-23T13:35:12.622Z,12.06
2019-03-23T13:36:16.962Z,12.11
2019-03-23T13:37:21.277Z,12.15
2019-03-23T13:38:25.568Z,12.17
2019-03-23T13:39:29.863Z,12.19
2019-03-23T13:40:34.061Z,12.19
2019-03-23T13:41:44.747Z,12.20
2019-03-23T13:42:42.555Z,12.21
2019-03-23T13:43:46.911Z,12.24
2019-03-23T13:44:51.103Z,12.27
2019-03-23T13:45:55.497Z,12.30
2019-03-23T13:46:59.806Z,12.29
2019-03-23T13:48:04.092Z,12.28
2019-03-23T13:49:08.331Z,12.24
2019-03-23T13:50:12.612Z,12.22
2019-03-23T13:51:16.873Z,12.20
2019-03-23T13:52:21.085Z,12.19
2019-03-23T13:53:25.464Z,12.18
2019-03-23T13:54:29.790Z,12.19
2019-03-23T13:55:34.069Z,12.20
2019-03-23T13:56:38.385Z,12.22
2019-03-23T13:57:45.670Z,12.23
2019-03-23T13:58:48.951Z,12.23
2019-03-23T13:59:53.280Z,12.23
2019-03-23T14:00:57.501Z,12.25
2019-03-23T14:02:01.843Z,12.23
2019-03-23T14:03:06.061Z,12.20
2019-03-23T14:04:10.392Z,12.20
2019-03-23T14:05:16.344Z,12.19
2019-03-23T14:06:18.995Z,12.19